Jacobus — OR3790 — position and weather

sailwx.info

Track history (hours):
 
Tides and Currents Weather Stations Pressure Air Temp Water Temp Dewpoint Dewpoint Depression Visibility Wind Speed Wind Dir Waves Ship Positions

Jacobus

Last reported at 2016-Apr-30 10:18 UTC. Time now 2016-May-02 03:39 UTC.
Position N 39°30' E 002°45'.

Length 17 m.

Type: Pleasure craft. MMSI: 205379010.

Date/timePositionNaut miles runAvg speedWind from/ knotsBaromVisibWave heightAir tempDewpointWater temp
2016-Apr-30 10:18N 39°30' E 002°45'4 5.4
2016-Apr-30 09:33N 39°31' E 002°40'5 4.3
2016-Apr-30 08:29N 39°32' E 002°34'0 0.0
2016-Apr-30 07:13N 39°32' E 002°34'0 0.0
2016-Apr-30 05:29N 39°32' E 002°34'0 0.0
2016-Apr-30 04:32N 39°32' E 002°34'0 0.0
2016-Apr-30 03:19N 39°32' E 002°34'0 0.0
2016-Apr-30 02:30N 39°32' E 002°34'0 0.0
2016-Apr-30 01:33N 39°32' E 002°34'0 0.0
2016-Apr-30 00:15N 39°32' E 002°34'0 0.0
2016-Apr-29 23:09N 39°32' E 002°34'0 0.0
2016-Apr-29 19:28N 39°32' E 002°34'0 0.0
2016-Apr-29 18:32N 39°32' E 002°34'1 1.1
2016-Apr-29 17:33N 39°32' E 002°35'3 3.3
2016-Apr-29 16:33N 39°31' E 002°39'4 4.0
2016-Apr-29 15:33N 39°30' E 002°44'0 0.4
2016-Apr-29 14:31N 39°30' E 002°45'0 0.0
2016-Apr-29 13:31N 39°30' E 002°45'0 0.0
2016-Apr-29 12:31N 39°30' E 002°45'0 0.0
2016-Apr-29 11:31N 39°30' E 002°45'0 0.0
2016-Apr-29 10:28N 39°30' E 002°45'0 0.0
2016-Apr-29 09:31N 39°30' E 002°45'0 0.0
2016-Apr-29 08:31N 39°30' E 002°45'0 0.0
2016-Apr-29 07:31N 39°30' E 002°45'0 0.0
2016-Apr-29 06:31N 39°30' E 002°45'0 0.0
2016-Apr-29 05:31N 39°30' E 002°45'0 0.0
2016-Apr-29 04:31N 39°30' E 002°45'0 0.0
2016-Apr-29 03:31N 39°30' E 002°45'0 0.0
2016-Apr-29 02:31N 39°30' E 002°45'0 0.0
2016-Apr-29 01:31N 39°30' E 002°45'0 0.0
2016-Apr-29 00:31N 39°30' E 002°45'0 0.0
2016-Apr-28 23:31N 39°30' E 002°45'0 0.0
2016-Apr-28 22:28N 39°30' E 002°45'0 0.0
2016-Apr-28 21:31N 39°30' E 002°45'0 0.0
2016-Apr-28 20:31N 39°30' E 002°45'0 0.0
2016-Apr-28 19:31N 39°30' E 002°45'0 0.0
2016-Apr-28 18:31N 39°30' E 002°45'0 0.0
2016-Apr-28 17:31N 39°30' E 002°45'0 0.0
2016-Apr-28 16:32N 39°30' E 002°45'0 0.0
2016-Apr-28 15:32N 39°30' E 002°45'0 0.0
2016-Apr-28 14:32N 39°30' E 002°45'0 0.0
2016-Apr-28 13:32N 39°30' E 002°45'0 0.0
2016-Apr-28 12:32N 39°30' E 002°45'0 0.0
2016-Apr-28 11:32N 39°30' E 002°45'0 0.0
2016-Apr-28 10:32N 39°30' E 002°45'  
Track history (hours):
 
Tides and Currents Weather Stations Pressure Air Temp Water Temp Dewpoint Dewpoint Depression Visibility Wind Speed Wind Dir Waves Ship Positions

Jacobus

Last reported at 2016-Apr-30 10:18 UTC. Time now 2016-May-02 03:39 UTC.
Position N 39°30' E 002°45'.

Length 17 m.

Type: Pleasure craft. MMSI: 205379010.

Date/timePositionNaut miles runAvg speedWind from/ knotsBaromVisibWave heightAir tempDewpointWater temp
2016-Apr-30 10:18N 39°30' E 002°45'4 5.4
2016-Apr-30 09:33N 39°31' E 002°40'5 4.3
2016-Apr-30 08:29N 39°32' E 002°34'0 0.0
2016-Apr-30 07:13N 39°32' E 002°34'0 0.0
2016-Apr-30 05:29N 39°32' E 002°34'0 0.0
2016-Apr-30 04:32N 39°32' E 002°34'0 0.0
2016-Apr-30 03:19N 39°32' E 002°34'0 0.0
2016-Apr-30 02:30N 39°32' E 002°34'0 0.0
2016-Apr-30 01:33N 39°32' E 002°34'0 0.0
2016-Apr-30 00:15N 39°32' E 002°34'0 0.0
2016-Apr-29 23:09N 39°32' E 002°34'0 0.0
2016-Apr-29 19:28N 39°32' E 002°34'0 0.0
2016-Apr-29 18:32N 39°32' E 002°34'1 1.1
2016-Apr-29 17:33N 39°32' E 002°35'3 3.3
2016-Apr-29 16:33N 39°31' E 002°39'4 4.0
2016-Apr-29 15:33N 39°30' E 002°44'0 0.4
2016-Apr-29 14:31N 39°30' E 002°45'0 0.0
2016-Apr-29 13:31N 39°30' E 002°45'0 0.0
2016-Apr-29 12:31N 39°30' E 002°45'0 0.0
2016-Apr-29 11:31N 39°30' E 002°45'0 0.0
2016-Apr-29 10:28N 39°30' E 002°45'0 0.0
2016-Apr-29 09:31N 39°30' E 002°45'0 0.0
2016-Apr-29 08:31N 39°30' E 002°45'0 0.0
2016-Apr-29 07:31N 39°30' E 002°45'0 0.0
2016-Apr-29 06:31N 39°30' E 002°45'0 0.0
2016-Apr-29 05:31N 39°30' E 002°45'0 0.0
2016-Apr-29 04:31N 39°30' E 002°45'0 0.0
2016-Apr-29 03:31N 39°30' E 002°45'0 0.0
2016-Apr-29 02:31N 39°30' E 002°45'0 0.0
2016-Apr-29 01:31N 39°30' E 002°45'0 0.0
2016-Apr-29 00:31N 39°30' E 002°45'0 0.0
2016-Apr-28 23:31N 39°30' E 002°45'0 0.0
2016-Apr-28 22:28N 39°30' E 002°45'0 0.0
2016-Apr-28 21:31N 39°30' E 002°45'0 0.0
2016-Apr-28 20:31N 39°30' E 002°45'0 0.0
2016-Apr-28 19:31N 39°30' E 002°45'0 0.0
2016-Apr-28 18:31N 39°30' E 002°45'0 0.0
2016-Apr-28 17:31N 39°30' E 002°45'0 0.0
2016-Apr-28 16:32N 39°30' E 002°45'0 0.0
2016-Apr-28 15:32N 39°30' E 002°45'0 0.0
2016-Apr-28 14:32N 39°30' E 002°45'0 0.0
2016-Apr-28 13:32N 39°30' E 002°45'0 0.0
2016-Apr-28 12:32N 39°30' E 002°45'0 0.0
2016-Apr-28 11:32N 39°30' E 002°45'0 0.0
2016-Apr-28 10:32N 39°30' E 002°45'  

Dump ship's entire track history